Time;durP1;ratioP1;P1;durP2;ratioP2;P2;SDS_P1;SDS_P2;PMS_P1;PMS_P2;Temp;Humidity;BMP_temperature;BMP_pressure;BME280_temperature;BME280_humidity;BME280_pressure;Samples;Min_cycle;Max_cycle;Signal;HPM_P1;HPM_P2
2023/01/31 00:01:29;;;;;;;26.60;4.17;;;4.40;99.90;;;;;;6268126;22;38995;-78
2023/01/31 00:04:02;;;;;;;28.17;3.77;;;4.50;99.90;;;;;;6267908;22;37320;-78
2023/01/31 00:06:33;;;;;;;19.65;3.75;;;4.50;99.90;;;;;;6265161;22;47185;-78
2023/01/31 00:09:01;;;;;;;28.80;5.17;;;4.60;99.90;;;;;;6264613;22;39622;-78
2023/01/31 00:11:28;;;;;;;25.87;4.87;;;4.60;99.90;;;;;;6270601;22;40467;-78
2023/01/31 00:13:56;;;;;;;24.10;4.20;;;4.60;99.90;;;;;;6269442;22;35946;-78
2023/01/31 00:16:22;;;;;;;34.17;4.97;;;4.40;99.90;;;;;;6268144;22;39578;-78
2023/01/31 00:18:49;;;;;;;20.77;3.03;;;4.30;99.90;;;;;;6268876;22;37617;-78
2023/01/31 00:21:26;;;;;;;20.70;3.47;;;4.30;99.90;;;;;;6262912;22;38915;-79
2023/01/31 00:23:54;;;;;;;24.03;4.77;;;4.20;99.90;;;;;;6271299;22;38091;-78
2023/01/31 00:26:26;;;;;;;21.73;3.63;;;4.10;99.90;;;;;;6270955;22;38431;-78
2023/01/31 00:28:53;;;;;;;25.27;3.87;;;4.00;99.90;;;;;;6267853;22;39318;-79
2023/01/31 00:31:21;;;;;;;28.80;4.83;;;4.10;99.90;;;;;;6268082;22;39319;-78
2023/01/31 00:33:49;;;;;;;23.17;4.37;;;4.00;99.90;;;;;;6269521;22;36978;-78
2023/01/31 00:36:18;;;;;;;29.97;3.63;;;4.00;99.90;;;;;;6265120;22;39933;-78
2023/01/31 00:38:47;;;;;;;28.50;4.93;;;4.10;99.90;;;;;;6266503;22;37691;-78
2023/01/31 00:41:13;;;;;;;25.60;3.47;;;4.10;99.90;;;;;;6264154;22;39903;-78
2023/01/31 00:43:39;;;;;;;24.50;5.60;;;4.10;99.90;;;;;;6266874;22;37922;-79
2023/01/31 00:46:05;;;;;;;31.03;4.33;;;4.10;99.90;;;;;;6268221;22;40465;-78
2023/01/31 00:48:32;;;;;;;23.77;4.27;;;4.00;99.90;;;;;;6268484;22;40037;-79
2023/01/31 00:50:58;;;;;;;29.33;4.37;;;4.00;99.90;;;;;;6268482;22;39258;-78
2023/01/31 00:53:24;;;;;;;30.30;4.67;;;3.80;99.90;;;;;;6268838;22;38278;-78
2023/01/31 00:55:52;;;;;;;30.43;3.97;;;3.70;99.90;;;;;;6267132;22;39597;-78
2023/01/31 00:58:18;;;;;;;18.73;4.57;;;3.70;99.90;;;;;;6266754;22;39697;-78
2023/01/31 01:00:45;;;;;;;29.63;4.67;;;3.80;99.90;;;;;;6265966;22;39757;-78
2023/01/31 01:03:12;;;;;;;24.83;4.80;;;3.70;99.90;;;;;;6265691;22;37944;-78
2023/01/31 01:05:38;;;;;;;31.77;5.30;;;3.70;99.90;;;;;;6267684;22;38891;-78
2023/01/31 01:08:04;;;;;;;32.33;5.23;;;3.70;99.90;;;;;;6269620;22;40249;-78
2023/01/31 01:10:31;;;;;;;30.63;6.13;;;3.70;99.90;;;;;;6271659;22;38519;-77
2023/01/31 01:12:57;;;;;;;24.70;4.53;;;3.70;99.90;;;;;;6270517;22;38216;-78
2023/01/31 01:15:23;;;;;;;36.27;4.97;;;3.80;99.90;;;;;;6267017;22;41143;-78
2023/01/31 01:17:49;;;;;;;23.30;4.53;;;3.80;99.90;;;;;;6267459;22;37976;-78
2023/01/31 01:20:16;;;;;;;20.53;5.00;;;3.80;99.90;;;;;;6269220;22;38648;-78
2023/01/31 01:22:42;;;;;;;29.37;4.80;;;3.90;99.90;;;;;;6272178;22;38384;-79
2023/01/31 01:25:09;;;;;;;31.03;5.73;;;3.90;99.90;;;;;;6265762;22;40562;-78
2023/01/31 01:27:36;;;;;;;33.83;4.80;;;4.20;99.90;;;;;;6268279;22;38654;-78
2023/01/31 01:30:03;;;;;;;28.10;4.20;;;4.20;99.90;;;;;;6267982;22;39495;-78
2023/01/31 01:32:29;;;;;;;28.60;5.50;;;4.40;99.90;;;;;;6268707;22;39397;-78
2023/01/31 01:34:55;;;;;;;29.00;5.10;;;4.50;99.90;;;;;;6272124;22;38846;-78
2023/01/31 01:37:21;;;;;;;36.13;6.30;;;4.60;99.90;;;;;;6269280;22;39002;-78
2023/01/31 01:39:51;;;;;;;46.83;6.53;;;4.70;99.90;;;;;;6269411;22;39470;-78
2023/01/31 01:42:25;;;;;;;31.87;7.60;;;4.90;99.90;;;;;;6269475;22;36935;-78
2023/01/31 01:44:57;;;;;;;40.70;7.67;;;5.00;99.90;;;;;;6265881;22;39684;-78
2023/01/31 01:47:35;;;;;;;40.45;7.88;;;5.10;99.90;;;;;;6268364;22;39885;-78
2023/01/31 01:50:07;;;;;;;36.63;7.87;;;5.10;99.90;;;;;;6268047;22;39254;-78
2023/01/31 01:52:38;;;;;;;42.85;9.63;;;5.20;99.90;;;;;;6295939;22;46959;-78
2023/01/31 01:55:15;;;;;;;43.23;7.80;;;5.20;99.90;;;;;;6273242;22;38912;-78
2023/01/31 01:57:43;;;;;;;45.90;9.20;;;5.30;99.90;;;;;;6270814;22;47118;-78
2023/01/31 02:02:38;;;;;;;31.57;7.70;;;5.50;99.90;;;;;;6243457;22;49221;-80
2023/01/31 02:05:07;;;;;;;40.97;8.40;;;5.50;99.90;;;;;;6274159;22;38588;-80
2023/01/31 02:07:34;;;;;;;41.87;7.80;;;5.50;99.90;;;;;;6304454;22;49001;-81
2023/01/31 02:10:25;;;;;;;40.23;7.60;;;5.50;99.90;;;;;;6280220;22;37505;-80
2023/01/31 02:12:52;;;;;;;42.17;8.07;;;5.60;99.90;;;;;;6278746;22;48068;-81
2023/01/31 02:15:19;;;;;;;42.67;8.53;;;5.60;99.90;;;;;;6279556;22;40076;-81
2023/01/31 02:17:45;;;;;;;36.93;8.00;;;5.60;99.90;;;;;;6278814;22;38939;-81
2023/01/31 02:20:30;;;;;;;32.77;7.27;;;5.70;99.90;;;;;;6279914;22;38703;-82
2023/01/31 02:23:30;;;;;;;30.07;7.43;;;5.70;99.90;;;;;;6280821;22;37201;-81
2023/01/31 02:26:26;;;;;;;42.30;7.70;;;5.60;99.90;;;;;;6277871;22;48039;-81
2023/01/31 02:29:20;;;;;;;25.57;7.07;;;5.60;99.90;;;;;;6277217;22;48124;-81
2023/01/31 02:32:11;;;;;;;37.97;8.03;;;5.60;99.90;;;;;;6273760;22;48266;-80
2023/01/31 02:35:16;;;;;;;45.33;8.27;;;5.70;99.90;;;;;;6272728;22;48221;-81
2023/01/31 02:37:50;;;;;;;43.73;7.03;;;5.60;99.90;;;;;;6276371;22;48429;-81
2023/01/31 02:40:32;;;;;;;41.03;9.03;;;5.60;99.90;;;;;;6301331;22;39022;-81
2023/01/31 02:44:57;;;;;;;50.80;9.15;;;5.60;99.90;;;;;;6274224;22;37245;-80
2023/01/31 02:46:34;;;;;;;30.00;7.77;;;5.50;99.90;;;;;;6298646;22;48619;-81
2023/01/31 02:49:33;;;;;;;45.57;8.60;;;5.60;99.90;;;;;;6302583;22;39310;-81
2023/01/31 02:52:20;;;;;;;38.97;8.03;;;5.70;99.90;;;;;;6275377;22;48643;-81
2023/01/31 02:57:49;;;;;;;39.00;7.87;;;5.60;99.90;;;;;;6301526;22;49988;-81
2023/01/31 03:00:17;;;;;;;45.20;9.07;;;5.60;99.90;;;;;;6301777;22;39558;-80
2023/01/31 03:02:43;;;;;;;39.03;8.27;;;5.60;99.90;;;;;;6279226;22;37604;-81
2023/01/31 03:05:15;;;;;;;33.30;8.90;;;5.50;99.90;;;;;;6304073;22;39959;-81
2023/01/31 03:07:45;;;;;;;39.50;8.93;;;5.40;99.90;;;;;;6277626;22;37518;-81
2023/01/31 03:10:47;;;;;;;39.77;9.50;;;5.40;99.90;;;;;;6274894;22;38737;-80
2023/01/31 03:13:43;;;;;;;33.43;8.50;;;5.40;99.90;;;;;;6298090;22;39141;-81
2023/01/31 03:19:37;;;;;;;35.30;9.77;;;5.30;99.90;;;;;;6295907;22;37770;-81
2023/01/31 03:22:09;;;;;;;49.55;10.23;;;5.30;99.90;;;;;;6299271;22;38551;-80
2023/01/31 03:24:37;;;;;;;45.23;10.83;;;5.20;99.90;;;;;;6271330;22;37803;-80
2023/01/31 03:27:04;;;;;;;37.30;9.30;;;5.20;99.90;;;;;;6299791;22;40028;-81
2023/01/31 03:29:37;;;;;;;40.40;8.73;;;5.20;99.90;;;;;;6299924;22;37687;-80
2023/01/31 03:32:23;;;;;;;;;;;5.20;99.90;;;;;;6271043;22;39621;-79
2023/01/31 03:34:50;;;;;;;35.00;8.57;;;5.20;99.90;;;;;;6269409;22;37944;-80
2023/01/31 03:37:31;;;;;;;45.43;9.43;;;5.20;99.90;;;;;;6266703;22;37602;-80
2023/01/31 03:40:10;;;;;;;39.67;9.10;;;5.10;99.90;;;;;;6271385;22;36404;-81
2023/01/31 03:42:54;;;;;;;44.27;11.17;;;5.10;99.90;;;;;;6267157;22;47025;-81
2023/01/31 03:45:24;;;;;;;44.37;9.47;;;5.10;99.90;;;;;;6294236;22;39845;-80
2023/01/31 03:47:53;;;;;;;46.30;10.30;;;5.00;99.90;;;;;;6301700;22;38397;-80
2023/01/31 03:50:35;;;;;;;46.33;10.40;;;5.00;99.90;;;;;;6269251;22;36382;-80
2023/01/31 03:53:19;;;;;;;41.83;9.80;;;5.10;99.90;;;;;;6267965;22;38689;-82
2023/01/31 03:55:57;;;;;;;45.60;9.63;;;5.20;99.90;;;;;;6267770;22;46640;-80
2023/01/31 03:58:29;;;;;;;52.77;10.20;;;5.30;99.90;;;;;;6295859;22;38721;-80
2023/01/31 04:00:58;;;;;;;39.30;8.43;;;5.40;99.90;;;;;;6271046;22;36358;-81
2023/01/31 04:03:44;;;;;;;46.97;10.03;;;5.50;99.90;;;;;;6299503;22;39531;-81
2023/01/31 04:06:11;;;;;;;49.37;9.57;;;5.50;99.90;;;;;;6274879;22;38229;-80
2023/01/31 04:08:37;;;;;;;53.43;8.77;;;5.50;99.90;;;;;;6273114;22;37881;-80
2023/01/31 04:11:07;;;;;;;46.83;9.63;;;5.50;99.90;;;;;;6301655;22;38745;-80
2023/01/31 04:13:34;;;;;;;35.83;8.43;;;5.50;99.90;;;;;;6271874;22;38059;-81
2023/01/31 04:16:03;;;;;;;41.73;8.57;;;5.60;99.90;;;;;;6277426;22;40449;-81
2023/01/31 04:18:29;;;;;;;40.07;8.57;;;5.50;99.90;;;;;;6279160;22;46973;-80
2023/01/31 04:20:55;;;;;;;45.57;9.13;;;5.60;99.90;;;;;;6302443;22;37152;-80
2023/01/31 04:23:23;;;;;;;43.47;9.90;;;5.60;99.90;;;;;;6304085;22;39490;-80
2023/01/31 04:25:52;;;;;;;48.37;9.10;;;5.70;99.90;;;;;;6278651;22;39331;-81
2023/01/31 04:28:18;;;;;;;47.83;7.67;;;5.70;99.90;;;;;;6272207;22;39584;-79
2023/01/31 04:30:56;;;;;;;36.87;9.73;;;5.70;99.90;;;;;;6271709;22;36694;-81
2023/01/31 04:33:24;;;;;;;50.73;8.90;;;5.80;99.90;;;;;;6268289;22;38237;-82
2023/01/31 04:35:51;;;;;;;40.73;9.10;;;5.80;99.90;;;;;;6273450;22;39003;-81
2023/01/31 04:38:21;;;;;;;35.03;8.80;;;5.70;99.90;;;;;;6279110;22;39143;-81
2023/01/31 04:41:01;;;;;;;37.67;8.37;;;5.70;99.90;;;;;;6292167;22;37973;-81
2023/01/31 04:43:30;;;;;;;42.03;8.10;;;5.70;99.90;;;;;;6255958;22;48135;-80
2023/01/31 04:45:56;;;;;;;42.30;7.97;;;5.70;99.90;;;;;;6286126;22;38884;-81
2023/01/31 04:48:23;;;;;;;44.27;7.80;;;5.70;99.90;;;;;;6263570;22;37306;-80
2023/01/31 04:50:49;;;;;;;44.47;8.00;;;5.80;99.90;;;;;;6299003;22;37062;-81
2023/01/31 04:53:15;;;;;;;43.20;8.63;;;5.80;99.90;;;;;;6298994;22;40320;-80
2023/01/31 04:55:42;;;;;;;43.50;9.17;;;5.80;99.90;;;;;;6269243;22;37444;-80
2023/01/31 04:58:08;;;;;;;37.63;7.17;;;5.90;99.90;;;;;;6296510;22;37217;-81
2023/01/31 05:00:34;;;;;;;48.40;8.73;;;5.90;99.90;;;;;;6271190;22;39190;-80
2023/01/31 05:03:00;;;;;;;29.30;7.17;;;5.90;99.90;;;;;;6276522;22;37494;-81
2023/01/31 05:05:27;;;;;;;34.23;7.67;;;5.90;99.90;;;;;;6298740;22;47886;-80
2023/01/31 05:07:53;;;;;;;29.10;6.57;;;6.00;99.90;;;;;;6300300;22;38976;-80
2023/01/31 05:10:19;;;;;;;49.20;8.20;;;6.00;99.90;;;;;;6292105;22;37635;-80
2023/01/31 05:12:46;;;;;;;44.50;8.20;;;6.00;99.90;;;;;;6295618;22;39812;-81
2023/01/31 05:15:20;;;;;;;47.37;7.90;;;6.00;99.90;;;;;;6302360;22;39258;-81
2023/01/31 05:17:53;;;;;;;49.17;7.87;;;6.00;99.90;;;;;;6304080;22;39409;-81
2023/01/31 05:20:20;;;;;;;38.60;7.53;;;6.00;99.90;;;;;;6304265;22;37755;-81
2023/01/31 05:22:48;;;;;;;31.43;6.53;;;6.00;99.90;;;;;;6302599;22;40913;-81
2023/01/31 05:25:15;;;;;;;36.90;7.97;;;6.00;99.90;;;;;;6302187;22;38544;-81
2023/01/31 05:27:43;;;;;;;37.17;7.43;;;6.00;99.90;;;;;;6306366;22;37393;-82
2023/01/31 05:30:15;;;;;;;36.30;8.07;;;6.00;99.90;;;;;;6300426;22;37222;-81
2023/01/31 05:32:47;;;;;;;38.53;7.70;;;6.10;99.90;;;;;;6310577;22;38964;-81
2023/01/31 05:35:16;;;;;;;41.40;9.50;;;6.10;99.90;;;;;;6289313;22;40871;-81
2023/01/31 05:38:04;;;;;;;39.10;7.83;;;6.10;99.90;;;;;;6307787;22;37837;-81
2023/01/31 05:40:31;;;;;;;36.23;7.30;;;6.10;99.90;;;;;;6286457;22;37420;-80
2023/01/31 05:43:00;;;;;;;36.77;7.33;;;6.10;99.90;;;;;;6328432;22;38887;-80
2023/01/31 05:45:27;;;;;;;39.93;8.70;;;6.10;99.90;;;;;;6249795;22;39034;-80
2023/01/31 05:48:06;;;;;;;31.63;6.90;;;6.20;99.90;;;;;;6292531;22;37590;-80
2023/01/31 05:50:41;;;;;;;42.33;7.67;;;6.20;99.90;;;;;;6302884;22;50472;-80
2023/01/31 05:53:10;;;;;;;34.77;8.23;;;6.20;99.90;;;;;;6291492;22;40171;-81
2023/01/31 05:55:49;;;;;;;35.63;7.60;;;6.20;99.90;;;;;;6313588;22;39759;-82
2023/01/31 05:58:17;;;;;;;37.23;7.20;;;6.20;99.90;;;;;;6284279;22;40120;-81
2023/01/31 06:00:58;;;;;;;32.55;7.45;;;6.20;99.90;;;;;;6278436;22;38236;-82
2023/01/31 06:03:28;;;;;;;41.40;7.77;;;6.20;99.90;;;;;;6231333;22;40314;-80
2023/01/31 06:06:16;;;;;;;32.53;7.33;;;6.20;99.90;;;;;;6309437;22;39541;-82
2023/01/31 06:08:55;;;;;;;35.60;6.73;;;6.20;99.90;;;;;;6255575;22;49902;-84
2023/01/31 06:11:30;;;;;;;34.47;8.00;;;6.20;99.90;;;;;;6290885;22;36117;-82
2023/01/31 06:14:02;;;;;;;33.07;6.17;;;6.20;99.90;;;;;;6216608;22;38921;-81
2023/01/31 06:16:59;;;;;;;43.72;7.70;;;6.20;99.90;;;;;;6259683;22;42061;-82
2023/01/31 06:20:25;;;;;;;31.58;6.88;;;6.20;99.90;;;;;;6112978;23;39769;-81
2023/01/31 06:23:25;;;;;;;32.93;6.93;;;6.10;99.90;;;;;;6147126;23;50117;-82
2023/01/31 06:26:14;;;;;;;38.33;8.20;;;6.10;99.90;;;;;;6144414;23;39982;-81
2023/01/31 06:29:19;;;;;;;30.23;6.77;;;6.10;99.90;;;;;;6110087;23;50451;-82
2023/01/31 06:31:54;;;;;;;34.27;7.40;;;6.10;99.90;;;;;;6146295;23;49521;-82
2023/01/31 06:34:32;;;;;;;37.60;7.60;;;6.10;99.90;;;;;;6119129;23;40228;-82
2023/01/31 06:37:12;;;;;;;30.27;7.87;;;6.10;99.90;;;;;;6144547;23;40138;-82
2023/01/31 06:39:44;;;;;;;34.43;6.80;;;6.10;99.90;;;;;;6090688;23;47708;-81
2023/01/31 06:42:40;;;;;;;39.17;7.87;;;6.10;99.90;;;;;;6138422;23;40354;-80
2023/01/31 06:45:19;;;;;;;47.33;7.97;;;6.10;99.90;;;;;;6156181;23;37814;-82
2023/01/31 06:48:13;;;;;;;40.03;7.27;;;6.20;99.90;;;;;;6165363;23;39919;-82
2023/01/31 06:50:53;;;;;;;29.73;6.53;;;6.20;99.90;;;;;;6132139;23;49574;-81
2023/01/31 06:56:57;;;;;;;30.10;5.77;;;6.20;99.90;;;;;;6290281;22;20068;-82
2023/01/31 07:02:12;;;;;;;29.27;6.67;;;6.20;99.90;;;;;;6306304;22;20064;-81
2023/01/31 07:04:38;;;;;;;36.97;6.13;;;6.30;99.90;;;;;;6303113;22;38643;-81
2023/01/31 07:07:10;;;;;;;32.20;6.40;;;6.20;99.90;;;;;;6282159;22;39243;-82
2023/01/31 07:09:40;;;;;;;44.95;6.32;;;6.20;99.90;;;;;;6305902;22;40665;-82
2023/01/31 07:12:10;;;;;;;43.17;6.67;;;6.20;99.90;;;;;;6195297;22;39438;-82
2023/01/31 07:14:49;;;;;;;37.87;6.40;;;6.20;99.90;;;;;;6273720;22;37676;-82
2023/01/31 07:17:22;;;;;;;38.58;7.47;;;6.20;99.90;;;;;;6233219;22;38617;-82
2023/01/31 07:20:15;;;;;;;34.37;6.53;;;6.20;99.90;;;;;;6255380;22;39336;-82
2023/01/31 07:23:06;;;;;;;40.70;7.82;;;6.20;99.90;;;;;;6290405;22;40448;-81
2023/01/31 07:26:06;;;;;;;30.77;6.20;;;6.10;99.90;;;;;;6209730;22;49067;-82
2023/01/31 07:28:36;;;;;;;26.15;5.30;;;6.20;99.90;;;;;;6237390;22;38545;-83
2023/01/31 07:31:40;;;;;;;35.53;6.27;;;6.20;99.90;;;;;;6270938;22;40303;-83
2023/01/31 07:36:43;;;;;;;42.37;6.83;;;6.30;99.90;;;;;;6304370;22;20016;-80
2023/01/31 07:39:20;;;;;;;35.70;6.87;;;6.30;99.90;;;;;;6301360;22;37173;-81
2023/01/31 07:41:46;;;;;;;38.97;6.17;;;6.30;99.90;;;;;;6305150;22;37593;-81
2023/01/31 07:44:12;;;;;;;31.57;6.83;;;6.30;99.90;;;;;;6302145;22;37910;-81
2023/01/31 07:46:40;;;;;;;39.30;7.47;;;6.30;99.90;;;;;;6304841;22;38154;-81
2023/01/31 07:49:09;;;;;;;41.73;8.07;;;6.30;99.90;;;;;;6306243;22;37534;-81
2023/01/31 07:51:35;;;;;;;23.80;6.00;;;6.30;99.90;;;;;;6306793;22;37461;-82
2023/01/31 07:54:10;;;;;;;34.70;8.07;;;6.30;99.90;;;;;;6308506;22;39398;-81
2023/01/31 07:56:37;;;;;;;30.93;6.67;;;6.30;99.90;;;;;;6302942;22;48503;-82
2023/01/31 07:59:06;;;;;;;35.20;5.53;;;6.30;99.90;;;;;;6303933;22;37370;-81
2023/01/31 08:04:28;;;;;;;42.47;6.77;;;6.30;99.90;;;;;;6303879;22;39705;-82
2023/01/31 08:06:58;;;;;;;32.77;6.00;;;6.40;99.90;;;;;;6306852;22;37771;-82
2023/01/31 08:09:24;;;;;;;24.83;5.10;;;6.40;99.90;;;;;;6305809;22;37039;-81
2023/01/31 08:11:54;;;;;;;30.73;5.90;;;6.40;99.90;;;;;;6308865;22;39713;-81
2023/01/31 08:14:24;;;;;;;36.50;6.03;;;6.30;99.90;;;;;;6303324;22;41942;-81
2023/01/31 08:16:51;;;;;;;32.83;5.90;;;6.30;99.90;;;;;;6304258;22;39712;-81
2023/01/31 08:19:19;;;;;;;22.90;4.27;;;6.30;99.90;;;;;;6304460;22;37269;-81
2023/01/31 08:21:45;;;;;;;34.30;5.30;;;6.20;99.90;;;;;;6306510;22;38444;-82
2023/01/31 08:24:12;;;;;;;37.03;6.47;;;6.30;99.90;;;;;;6301716;22;38754;-82
2023/01/31 08:26:41;;;;;;;28.87;5.17;;;6.30;99.90;;;;;;6306282;22;38917;-82
2023/01/31 08:29:08;;;;;;;31.73;6.50;;;6.30;99.90;;;;;;6303732;22;37329;-82
2023/01/31 08:31:38;;;;;;;36.10;4.97;;;6.30;99.90;;;;;;6305740;22;38660;-81
2023/01/31 08:34:06;;;;;;;29.23;5.77;;;6.30;99.90;;;;;;6271427;22;39441;-82
2023/01/31 08:49:47;;;;;;;35.70;6.73;;;6.30;99.90;;;;;;6262082;22;20030;-82
2023/01/31 08:52:14;;;;;;;30.93;5.83;;;6.30;99.90;;;;;;6251156;22;38910;-83
2023/01/31 08:55:05;;;;;;;35.17;5.13;;;6.40;99.90;;;;;;6278667;22;38780;-82
2023/01/31 08:57:31;;;;;;;29.53;5.10;;;6.40;99.90;;;;;;6307350;22;50087;-82
2023/01/31 09:02:55;;;;;;;27.30;4.87;;;6.70;99.90;;;;;;6274406;22;20011;-80
2023/01/31 09:05:23;;;;;;;34.17;5.07;;;6.80;99.90;;;;;;6302904;22;39215;-82
2023/01/31 09:07:50;;;;;;;36.27;5.90;;;6.80;99.90;;;;;;6297013;22;38982;-82
2023/01/31 09:10:36;;;;;;;27.77;5.53;;;6.90;99.90;;;;;;6302232;22;38825;-80
2023/01/31 09:13:03;;;;;;;35.37;6.10;;;6.90;99.90;;;;;;6305844;22;38326;-82
2023/01/31 09:15:29;;;;;;;36.70;5.33;;;7.00;99.90;;;;;;6304402;22;40147;-81
2023/01/31 09:18:04;;;;;;;34.47;4.93;;;7.20;99.90;;;;;;6305035;22;38509;-82
2023/01/31 09:20:30;;;;;;;21.93;4.63;;;7.10;99.90;;;;;;6302557;22;48354;-80
2023/01/31 09:22:56;;;;;;;26.37;4.93;;;7.30;99.90;;;;;;6305497;22;40351;-80
2023/01/31 09:25:22;;;;;;;27.07;5.23;;;7.40;99.90;;;;;;6304004;22;38926;-80
2023/01/31 09:27:52;;;;;;;28.70;4.80;;;7.40;99.90;;;;;;6307048;22;39982;-81
2023/01/31 09:30:19;;;;;;;26.33;5.07;;;7.50;99.90;;;;;;6305855;22;38687;-82
2023/01/31 09:32:48;;;;;;;26.77;5.60;;;7.50;99.90;;;;;;6328908;22;39187;-82
2023/01/31 09:35:18;;;;;;;23.30;4.43;;;7.40;99.90;;;;;;6298743;22;40054;-81
2023/01/31 09:37:46;;;;;;;33.83;5.40;;;7.40;99.90;;;;;;6304835;22;37488;-81
2023/01/31 09:40:25;;;;;;;30.83;4.70;;;7.50;99.90;;;;;;6303338;22;38043;-79
2023/01/31 09:43:03;;;;;;;23.30;4.47;;;7.70;99.90;;;;;;6269272;22;39314;-83
2023/01/31 09:46:14;;;;;;;26.77;4.67;;;7.70;99.90;;;;;;6266964;22;48355;-83
2023/01/31 09:48:46;;;;;;;26.80;4.00;;;7.80;99.90;;;;;;6279480;22;39912;-82
2023/01/31 09:51:15;;;;;;;24.50;3.43;;;7.70;99.90;;;;;;6280701;22;37375;-82
2023/01/31 09:53:42;;;;;;;28.43;4.87;;;7.70;99.90;;;;;;6280334;22;38053;-81
2023/01/31 09:56:13;;;;;;;23.20;4.60;;;7.70;99.90;;;;;;6279150;22;38064;-82
2023/01/31 09:59:03;;;;;;;26.63;4.17;;;7.70;99.90;;;;;;6275398;22;38657;-82
2023/01/31 10:01:57;;;;;;;20.70;4.57;;;7.80;99.90;;;;;;6279309;22;38002;-81
2023/01/31 10:04:49;;;;;;;26.83;3.87;;;7.80;99.90;;;;;;6277239;22;38867;-82
2023/01/31 10:07:36;;;;;;;30.95;3.90;;;8.00;99.90;;;;;;6281316;22;38781;-81
2023/01/31 10:10:16;;;;;;;21.80;3.80;;;8.10;99.90;;;;;;6310472;22;39819;-82
2023/01/31 10:12:50;;;;;;;26.20;4.40;;;8.10;99.90;;;;;;6282657;22;47565;-83
2023/01/31 10:15:38;;;;;;;33.13;5.37;;;8.30;99.90;;;;;;6281067;22;39024;-82
2023/01/31 10:21:17;;;;;;;21.57;3.60;;;8.40;99.90;;;;;;6301321;22;20056;-82
2023/01/31 10:26:26;;;;;;;28.10;3.93;;;8.70;99.90;;;;;;6337514;22;19959;-80
2023/01/31 10:29:20;;;;;;;24.53;4.10;;;8.80;99.90;;;;;;6294435;22;39141;-77
2023/01/31 10:32:30;;;;;;;23.27;3.87;;;8.90;99.90;;;;;;6306977;22;48497;-77
2023/01/31 10:35:03;;;;;;;19.93;4.03;;;8.70;99.90;;;;;;6277013;22;47143;-78
2023/01/31 10:37:29;;;;;;;;;;;8.50;99.90;;;;;;6308614;22;38760;-76
2023/01/31 10:40:03;;;;;;;30.73;5.10;;;8.40;99.90;;;;;;6307588;22;40271;-77
2023/01/31 10:42:38;;;;;;;31.53;4.57;;;8.40;99.90;;;;;;6280525;22;39545;-77
2023/01/31 10:45:29;;;;;;;29.63;5.20;;;8.50;99.90;;;;;;6309068;22;37037;-77
2023/01/31 10:48:17;;;;;;;27.63;4.13;;;8.50;99.90;;;;;;6274149;22;47236;-77
2023/01/31 10:50:46;;;;;;;25.07;3.50;;;8.70;99.90;;;;;;6276129;22;47214;-77
2023/01/31 10:53:33;;;;;;;31.13;4.83;;;8.80;99.90;;;;;;6277569;22;38650;-77
2023/01/31 10:56:29;;;;;;;24.63;4.00;;;8.90;99.90;;;;;;6279878;22;36226;-77
2023/01/31 10:58:58;;;;;;;24.13;5.20;;;8.90;99.90;;;;;;6270994;22;47232;-77
2023/01/31 11:01:25;;;;;;;25.97;4.23;;;8.90;99.90;;;;;;6279232;22;38299;-77
2023/01/31 11:03:55;;;;;;;23.97;4.00;;;8.90;99.90;;;;;;6308053;22;38721;-77
2023/01/31 11:06:23;;;;;;;24.80;3.83;;;8.80;99.90;;;;;;6280341;22;38974;-76
2023/01/31 11:08:58;;;;;;;23.33;3.90;;;8.70;99.90;;;;;;6281808;22;39679;-77
2023/01/31 11:11:27;;;;;;;21.13;3.50;;;8.70;99.90;;;;;;6279364;22;39605;-77
2023/01/31 11:14:05;;;;;;;27.30;3.73;;;8.70;99.90;;;;;;6309312;22;38508;-77
2023/01/31 11:16:39;;;;;;;25.67;4.50;;;8.70;99.90;;;;;;6281078;22;47095;-77
2023/01/31 11:19:34;;;;;;;24.17;5.40;;;8.70;99.90;;;;;;6307068;22;38969;-77
2023/01/31 11:22:02;;;;;;;26.10;4.50;;;8.70;99.90;;;;;;6306937;22;39191;-77
2023/01/31 11:24:32;;;;;;;23.40;5.37;;;8.60;99.90;;;;;;6310321;22;48948;-77
2023/01/31 11:27:11;;;;;;;20.27;3.90;;;8.70;99.90;;;;;;6311553;22;38494;-77
2023/01/31 11:29:48;;;;;;;25.17;3.80;;;8.70;99.90;;;;;;6279205;22;47343;-78
2023/01/31 11:32:24;;;;;;;17.57;3.23;;;8.70;99.90;;;;;;6277338;22;40122;-77
2023/01/31 11:35:13;;;;;;;30.97;5.07;;;8.70;99.90;;;;;;6279804;22;39024;-77
2023/01/31 11:38:02;;;;;;;28.67;4.27;;;8.70;99.90;;;;;;6263084;22;47052;-77
2023/01/31 11:40:33;;;;;;;24.47;4.03;;;8.70;99.90;;;;;;6279415;22;47025;-77
2023/01/31 11:43:05;;;;;;;18.73;3.37;;;8.70;99.90;;;;;;6306135;22;37635;-77
2023/01/31 11:45:35;;;;;;;21.33;4.00;;;8.70;99.90;;;;;;6302955;22;47064;-77
2023/01/31 11:48:32;;;;;;;24.67;4.13;;;8.70;99.90;;;;;;6277384;22;38681;-77
2023/01/31 11:51:01;;;;;;;25.23;4.80;;;8.80;99.90;;;;;;6294350;22;47136;-77
2023/01/31 11:53:43;;;;;;;18.63;3.53;;;8.80;99.90;;;;;;6306421;22;48870;-77
2023/01/31 11:56:14;;;;;;;26.45;4.43;;;8.80;99.90;;;;;;6277370;22;39990;-77
2023/01/31 11:58:42;;;;;;;26.13;4.13;;;8.80;99.90;;;;;;6276437;22;39080;-78
2023/01/31 12:01:11;;;;;;;20.33;3.30;;;8.80;99.90;;;;;;6306866;22;39726;-77
2023/01/31 12:03:37;;;;;;;25.53;4.43;;;8.80;99.90;;;;;;6278449;22;39209;-77
2023/01/31 12:06:07;;;;;;;22.27;3.67;;;8.80;99.90;;;;;;6277659;22;39897;-78
2023/01/31 12:08:38;;;;;;;21.90;4.10;;;8.80;99.90;;;;;;6280462;22;37864;-78
2023/01/31 12:11:15;;;;;;;20.83;3.60;;;8.90;99.90;;;;;;6303620;22;38599;-79
2023/01/31 12:14:01;;;;;;;18.97;4.17;;;8.90;99.90;;;;;;6280584;22;38914;-78
2023/01/31 12:16:29;;;;;;;27.63;4.43;;;8.90;99.90;;;;;;6277246;22;37398;-78
2023/01/31 12:19:19;;;;;;;16.30;3.57;;;9.00;99.90;;;;;;6304339;22;37193;-78
2023/01/31 12:22:16;;;;;;;24.00;3.70;;;9.00;99.90;;;;;;6279457;22;47097;-79
2023/01/31 12:25:21;;;;;;;16.97;3.43;;;9.00;99.90;;;;;;6276444;22;47215;-78
2023/01/31 12:28:22;;;;;;;21.47;4.40;;;9.00;99.90;;;;;;6228104;22;46958;-78
2023/01/31 12:30:48;;;;;;;27.00;5.23;;;9.00;99.90;;;;;;6306600;22;47253;-78
2023/01/31 12:33:42;;;;;;;17.13;3.47;;;9.10;99.90;;;;;;6278682;22;37674;-78
2023/01/31 12:36:24;;;;;;;15.63;3.13;;;9.10;99.90;;;;;;6279560;22;39246;-78
2023/01/31 12:38:57;;;;;;;23.10;3.67;;;9.10;99.90;;;;;;6280177;22;38090;-78
2023/01/31 12:41:51;;;;;;;15.73;3.10;;;9.20;99.90;;;;;;6309282;22;37427;-78
2023/01/31 12:44:26;;;;;;;19.57;3.57;;;9.20;99.90;;;;;;6283601;22;39567;-78
2023/01/31 12:47:07;;;;;;;23.67;3.50;;;9.20;99.90;;;;;;6280564;22;40303;-77
2023/01/31 12:49:42;;;;;;;27.27;3.67;;;9.30;99.90;;;;;;6305838;22;48624;-77
2023/01/31 12:52:32;;;;;;;22.13;3.60;;;9.40;99.90;;;;;;6278069;22;36560;-78
2023/01/31 12:55:19;;;;;;;16.63;3.60;;;9.40;99.90;;;;;;6281023;22;38943;-78
2023/01/31 12:58:07;;;;;;;20.73;4.07;;;9.50;99.90;;;;;;6308042;22;49930;-78
2023/01/31 13:00:41;;;;;;;22.53;4.93;;;9.60;99.90;;;;;;6306503;22;48390;-78
2023/01/31 13:03:38;;;;;;;21.00;4.07;;;9.60;99.90;;;;;;6278980;22;37993;-78
2023/01/31 13:06:26;;;;;;;23.20;4.23;;;9.70;99.90;;;;;;6307682;22;38588;-79
2023/01/31 13:09:01;;;;;;;19.00;3.50;;;9.70;99.90;;;;;;6279431;22;39571;-78
2023/01/31 13:11:45;;;;;;;18.83;4.13;;;9.70;99.90;;;;;;6275696;22;38832;-78
2023/01/31 13:14:18;;;;;;;20.43;3.40;;;9.80;99.90;;;;;;6277397;22;37452;-78
2023/01/31 13:16:48;;;;;;;20.03;3.63;;;9.80;99.90;;;;;;6307258;22;38666;-78
2023/01/31 13:19:25;;;;;;;16.73;3.63;;;9.80;99.90;;;;;;6307600;22;39536;-78
2023/01/31 13:21:56;;;;;;;13.50;2.80;;;9.90;99.90;;;;;;6309149;22;39251;-77
2023/01/31 13:24:30;;;;;;;22.90;3.77;;;9.80;99.90;;;;;;6306733;22;37295;-77
2023/01/31 13:27:01;;;;;;;17.50;3.67;;;9.90;99.90;;;;;;6307067;22;38921;-78
2023/01/31 13:29:44;;;;;;;26.53;4.27;;;9.90;99.90;;;;;;6300189;22;47029;-79
2023/01/31 13:32:19;;;;;;;24.57;3.70;;;10.10;99.90;;;;;;6278687;22;37716;-78
2023/01/31 13:34:56;;;;;;;18.27;4.27;;;10.10;99.90;;;;;;6307300;22;37372;-79
2023/01/31 13:37:25;;;;;;;20.40;3.30;;;10.00;99.90;;;;;;6309147;22;39043;-78
2023/01/31 13:39:57;;;;;;;28.27;4.47;;;9.90;99.90;;;;;;6281302;22;39520;-78
2023/01/31 13:42:24;;;;;;;21.17;3.88;;;9.90;99.90;;;;;;6280741;22;39449;-78
2023/01/31 13:44:51;;;;;;;19.47;3.53;;;9.90;99.90;;;;;;6281939;22;37718;-78
2023/01/31 13:47:32;;;;;;;20.53;3.63;;;10.00;99.90;;;;;;6309340;22;38961;-78
2023/01/31 13:50:26;;;;;;;16.90;3.80;;;10.10;99.90;;;;;;6283760;22;39495;-79
2023/01/31 13:52:55;;;;;;;14.40;3.23;;;10.20;99.90;;;;;;6269975;22;46865;-78
2023/01/31 13:55:44;;;;;;;21.77;3.27;;;10.30;99.90;;;;;;6308417;22;37632;-78
2023/01/31 13:58:22;;;;;;;18.73;3.20;;;10.20;99.90;;;;;;6280573;22;39129;-79
2023/01/31 14:01:02;;;;;;;21.40;3.63;;;10.20;99.90;;;;;;6282844;22;40668;-78
2023/01/31 14:03:28;;;;;;;17.93;3.13;;;10.20;99.90;;;;;;6311839;22;48599;-77
2023/01/31 14:05:57;;;;;;;15.93;2.57;;;10.20;99.90;;;;;;6283276;22;38166;-79
2023/01/31 14:08:26;;;;;;;17.07;2.97;;;10.30;99.90;;;;;;6281907;22;40668;-78
2023/01/31 14:10:54;;;;;;;17.53;3.10;;;10.30;99.90;;;;;;6282133;22;37807;-78